ETH927 HAAB-DGAA
Flight info
| Callsign | ETH927 |
|---|---|
| Flight time | N/A |
| Altitude | 36000 |
| Route | BRO4B BRO DCT KAFIA UA410 IPISU UQ200 ETVAL/N0464F380 UQ200 LAG UL433 EREKA EREKA1B |
| Aircraft | B38M/M-SDE1FGHILORVWXY/HB1 |
Departure
| Time | N/A |
|---|---|
| Airport | Addis Ababa Bole International Airport (HAAB) |
Arrival
| Time | 2026-05-03 21:35 |
|---|---|
| Airport | Kotoka International Airport (DGAA) |
| Time | Latitude | Longitude | Altitude | Speed | Heading |
|---|---|---|---|---|---|
| 2026-05-03 20:15 | 7.05611 | 8.63208 | 35905 ft | 468 kts | 266° |
| 2026-05-03 20:15 | 7.05231 | 8.56669 | 35904 ft | 468 kts | 266° |
| 2026-05-03 20:16 | 7.04850 | 8.50133 | 35911 ft | 467 kts | 266° |
| 2026-05-03 20:16 | 7.04469 | 8.43601 | 35906 ft | 467 kts | 266° |
| 2026-05-03 20:17 | 7.04085 | 8.37032 | 35909 ft | 467 kts | 266° |
| 2026-05-03 20:17 | 7.03704 | 8.30553 | 35910 ft | 467 kts | 266° |
| 2026-05-03 20:18 | 7.03321 | 8.24030 | 35907 ft | 467 kts | 266° |
| 2026-05-03 20:18 | 7.02935 | 8.17504 | 35913 ft | 467 kts | 266° |
| 2026-05-03 20:19 | 7.02552 | 8.10984 | 35922 ft | 467 kts | 266° |
| 2026-05-03 20:19 | 7.02165 | 8.04464 | 35910 ft | 467 kts | 266° |
| 2026-05-03 20:20 | 7.01778 | 7.97944 | 35913 ft | 467 kts | 266° |
| 2026-05-03 20:20 | 7.01453 | 7.92483 | 35913 ft | 466 kts | 266° |
| 2026-05-03 20:21 | 7.01067 | 7.86004 | 35917 ft | 466 kts | 266° |
| 2026-05-03 20:21 | 7.00678 | 7.79492 | 35919 ft | 466 kts | 266° |
| 2026-05-03 20:22 | 7.00283 | 7.72983 | 35925 ft | 466 kts | 266° |
| 2026-05-03 20:22 | 6.99879 | 7.66478 | 35928 ft | 466 kts | 266° |
| 2026-05-03 20:23 | 6.99478 | 7.59980 | 35933 ft | 465 kts | 266° |
| 2026-05-03 20:23 | 6.99082 | 7.53481 | 35930 ft | 465 kts | 266° |
| 2026-05-03 20:24 | 6.98684 | 7.46984 | 35933 ft | 465 kts | 266° |
| 2026-05-03 20:24 | 6.98286 | 7.40487 | 35932 ft | 465 kts | 266° |
| 2026-05-03 20:25 | 6.97887 | 7.33994 | 35931 ft | 465 kts | 266° |
| 2026-05-03 20:25 | 6.97487 | 7.27502 | 35928 ft | 464 kts | 266° |
| 2026-05-03 20:26 | 6.97087 | 7.21022 | 35928 ft | 464 kts | 266° |
| 2026-05-03 20:26 | 6.96686 | 7.14535 | 35925 ft | 464 kts | 266° |
| 2026-05-03 20:27 | 6.96281 | 7.08056 | 35921 ft | 464 kts | 266° |
| 2026-05-03 20:27 | 6.95872 | 7.01575 | 35921 ft | 464 kts | 266° |
| 2026-05-03 20:28 | 6.95464 | 6.95107 | 35919 ft | 463 kts | 266° |
| 2026-05-03 20:28 | 6.95055 | 6.88639 | 35920 ft | 463 kts | 266° |
| 2026-05-03 20:29 | 6.94645 | 6.82172 | 35918 ft | 463 kts | 266° |
| 2026-05-03 20:29 | 6.94234 | 6.75714 | 35920 ft | 463 kts | 266° |
| 2026-05-03 20:30 | 6.93823 | 6.69258 | 35919 ft | 462 kts | 266° |
| 2026-05-03 20:30 | 6.93411 | 6.62793 | 35920 ft | 462 kts | 266° |
| 2026-05-03 20:31 | 6.92998 | 6.56339 | 35923 ft | 462 kts | 266° |
| 2026-05-03 20:31 | 6.92585 | 6.49883 | 35922 ft | 462 kts | 266° |
| 2026-05-03 20:32 | 6.92170 | 6.43431 | 35929 ft | 462 kts | 266° |
| 2026-05-03 20:32 | 6.91753 | 6.36980 | 35931 ft | 462 kts | 266° |
| 2026-05-03 20:33 | 6.91334 | 6.30527 | 35936 ft | 462 kts | 266° |
| 2026-05-03 20:33 | 6.90914 | 6.24073 | 35938 ft | 462 kts | 266° |
| 2026-05-03 20:34 | 6.90493 | 6.17617 | 35939 ft | 462 kts | 266° |
| 2026-05-03 20:34 | 6.90072 | 6.11158 | 35940 ft | 463 kts | 266° |
| 2026-05-03 20:35 | 6.89649 | 6.04695 | 35940 ft | 463 kts | 266° |
| 2026-05-03 20:35 | 6.89225 | 5.98228 | 35943 ft | 463 kts | 266° |
| 2026-05-03 20:36 | 6.88808 | 5.91756 | 35941 ft | 463 kts | 266° |
| 2026-05-03 20:36 | 6.88399 | 5.85325 | 35942 ft | 464 kts | 266° |
| 2026-05-03 20:37 | 6.87983 | 5.78806 | 35940 ft | 464 kts | 266° |
| 2026-05-03 20:37 | 6.87571 | 5.72366 | 35944 ft | 464 kts | 266° |
| 2026-05-03 20:38 | 6.87156 | 5.65883 | 35941 ft | 464 kts | 266° |
| 2026-05-03 20:38 | 6.86740 | 5.59396 | 35941 ft | 465 kts | 266° |
| 2026-05-03 20:39 | 6.86322 | 5.52907 | 35943 ft | 465 kts | 266° |
| 2026-05-03 20:39 | 6.85904 | 5.46415 | 35945 ft | 465 kts | 266° |
| 2026-05-03 20:40 | 6.85485 | 5.39926 | 35944 ft | 465 kts | 266° |
| 2026-05-03 20:40 | 6.85064 | 5.33435 | 35946 ft | 465 kts | 266° |
| 2026-05-03 20:41 | 6.84643 | 5.26938 | 35946 ft | 465 kts | 266° |
| 2026-05-03 20:41 | 6.84221 | 5.20446 | 35950 ft | 465 kts | 266° |
| 2026-05-03 20:42 | 6.83798 | 5.13956 | 35950 ft | 465 kts | 266° |
| 2026-05-03 20:42 | 6.83374 | 5.07459 | 35949 ft | 465 kts | 266° |
| 2026-05-03 20:43 | 6.83045 | 5.02393 | 35952 ft | 465 kts | 266° |
| 2026-05-03 20:43 | 6.82617 | 4.95897 | 35952 ft | 465 kts | 265° |
| 2026-05-03 20:44 | 6.82141 | 4.89406 | 35952 ft | 465 kts | 265° |
| 2026-05-03 20:44 | 6.81665 | 4.82914 | 35953 ft | 465 kts | 265° |
| 2026-05-03 20:45 | 6.81188 | 4.76427 | 35951 ft | 465 kts | 265° |
| 2026-05-03 20:45 | 6.80711 | 4.69936 | 35948 ft | 465 kts | 265° |
| 2026-05-03 20:46 | 6.80233 | 4.63448 | 35950 ft | 465 kts | 265° |
| 2026-05-03 20:46 | 6.79757 | 4.57000 | 35951 ft | 465 kts | 265° |
| 2026-05-03 20:47 | 6.79277 | 4.50516 | 35947 ft | 465 kts | 265° |
| 2026-05-03 20:47 | 6.78799 | 4.44019 | 35949 ft | 465 kts | 265° |
| 2026-05-03 20:48 | 6.78339 | 4.37533 | 35946 ft | 465 kts | 265° |
| 2026-05-03 20:48 | 6.77876 | 4.31045 | 35949 ft | 465 kts | 265° |
| 2026-05-03 20:49 | 6.77413 | 4.24557 | 35943 ft | 465 kts | 265° |
| 2026-05-03 20:49 | 6.76949 | 4.18069 | 35943 ft | 465 kts | 265° |
| 2026-05-03 20:50 | 6.76484 | 4.11584 | 35946 ft | 465 kts | 265° |
| 2026-05-03 20:50 | 6.76018 | 4.05098 | 35944 ft | 465 kts | 265° |
| 2026-05-03 20:51 | 6.75551 | 3.98615 | 35945 ft | 465 kts | 265° |
| 2026-05-03 20:51 | 6.75083 | 3.92124 | 35944 ft | 465 kts | 265° |
| 2026-05-03 20:52 | 6.74615 | 3.85642 | 35944 ft | 465 kts | 265° |
| 2026-05-03 20:52 | 6.74146 | 3.79160 | 35936 ft | 465 kts | 265° |
| 2026-05-03 20:53 | 6.73911 | 3.75924 | 35934 ft | 464 kts | 265° |
| 2026-05-03 20:53 | 6.73814 | 3.74577 | 35931 ft | 464 kts | 265° |
| 2026-05-03 20:54 | 6.73343 | 3.68091 | 35932 ft | 465 kts | 265° |
| 2026-05-03 20:54 | 6.72635 | 3.58371 | 35934 ft | 464 kts | 265° |
| 2026-05-03 20:55 | 6.72163 | 3.51892 | 35934 ft | 464 kts | 265° |
| 2026-05-03 20:55 | 6.71689 | 3.45416 | 35931 ft | 464 kts | 265° |
| 2026-05-03 20:56 | 6.71215 | 3.38938 | 35931 ft | 464 kts | 265° |
| 2026-05-03 20:56 | 6.70518 | 3.32491 | 35911 ft | 462 kts | 253° |
| 2026-05-03 20:57 | 6.68358 | 3.26404 | 35928 ft | 463 kts | 250° |
| 2026-05-03 20:57 | 6.66139 | 3.20373 | 35929 ft | 463 kts | 249° |
| 2026-05-03 20:58 | 6.63879 | 3.14314 | 35930 ft | 463 kts | 249° |
| 2026-05-03 20:58 | 6.61618 | 3.08263 | 35928 ft | 462 kts | 249° |
| 2026-05-03 20:59 | 6.59354 | 3.02209 | 35929 ft | 462 kts | 249° |
| 2026-05-03 20:59 | 6.57091 | 2.96159 | 35927 ft | 462 kts | 249° |
| 2026-05-03 21:00 | 6.55577 | 2.92112 | 35926 ft | 462 kts | 249° |
| 2026-05-03 21:00 | 6.52565 | 2.84067 | 35925 ft | 462 kts | 249° |
| 2026-05-03 21:01 | 6.50304 | 2.78026 | 35925 ft | 462 kts | 249° |
| 2026-05-03 21:01 | 6.48085 | 2.71969 | 35925 ft | 461 kts | 250° |
| 2026-05-03 21:02 | 6.45886 | 2.65915 | 35927 ft | 461 kts | 250° |
| 2026-05-03 21:02 | 6.43683 | 2.59856 | 35930 ft | 461 kts | 250° |
| 2026-05-03 21:03 | 6.41483 | 2.53810 | 35939 ft | 461 kts | 250° |
| 2026-05-03 21:03 | 6.39281 | 2.47750 | 35935 ft | 461 kts | 249° |
| 2026-05-03 21:04 | 6.37083 | 2.41705 | 35940 ft | 461 kts | 249° |
| 2026-05-03 21:04 | 6.35632 | 2.35453 | 35939 ft | 461 kts | 260° |
| 2026-05-03 21:05 | 6.34621 | 2.29077 | 35928 ft | 462 kts | 261° |
| 2026-05-03 21:05 | 6.33780 | 2.23778 | 35931 ft | 462 kts | 260° |
| 2026-05-03 21:06 | 6.32765 | 2.17403 | 35927 ft | 462 kts | 260° |
| 2026-05-03 21:06 | 6.31595 | 2.09994 | 35936 ft | 462 kts | 260° |
| 2026-05-03 21:07 | 6.30751 | 2.04654 | 35930 ft | 462 kts | 260° |
| 2026-05-03 21:07 | 6.29743 | 1.98272 | 35937 ft | 462 kts | 260° |
| 2026-05-03 21:08 | 6.28734 | 1.91893 | 35935 ft | 462 kts | 260° |
| 2026-05-03 21:08 | 6.27723 | 1.85504 | 35937 ft | 463 kts | 260° |
| 2026-05-03 21:09 | 6.26712 | 1.79120 | 35939 ft | 463 kts | 260° |
| 2026-05-03 21:09 | 6.25706 | 1.72772 | 35944 ft | 463 kts | 260° |
| 2026-05-03 21:10 | 6.24693 | 1.66384 | 35941 ft | 463 kts | 260° |
| 2026-05-03 21:10 | 6.23679 | 1.59995 | 35943 ft | 463 kts | 260° |
| 2026-05-03 21:11 | 6.22663 | 1.53604 | 35943 ft | 463 kts | 260° |
| 2026-05-03 21:11 | 6.21646 | 1.47208 | 35943 ft | 463 kts | 260° |
| 2026-05-03 21:12 | 6.20630 | 1.40820 | 35942 ft | 463 kts | 260° |
| 2026-05-03 21:12 | 6.19612 | 1.34430 | 35929 ft | 463 kts | 260° |
| 2026-05-03 21:13 | 6.19106 | 1.31257 | 35274 ft | 461 kts | 260° |
| 2026-05-03 21:13 | 6.18577 | 1.28050 | 34252 ft | 469 kts | 258° |
| 2026-05-03 21:13 | 6.17622 | 1.24905 | 33201 ft | 475 kts | 244° |
| 2026-05-03 21:13 | 6.16256 | 1.21880 | 32373 ft | 476 kts | 246° |
| 2026-05-03 21:14 | 6.14927 | 1.18841 | 31749 ft | 473 kts | 246° |
| 2026-05-03 21:14 | 6.13614 | 1.15816 | 30992 ft | 474 kts | 246° |
| 2026-05-03 21:14 | 6.12290 | 1.12764 | 30053 ft | 479 kts | 246° |
| 2026-05-03 21:14 | 6.10947 | 1.09672 | 28948 ft | 486 kts | 246° |
| 2026-05-03 21:15 | 6.09590 | 1.06553 | 27963 ft | 488 kts | 246° |
| 2026-05-03 21:15 | 6.08236 | 1.03424 | 26993 ft | 490 kts | 246° |
| 2026-05-03 21:15 | 6.06898 | 1.00259 | 25870 ft | 495 kts | 249° |
| 2026-05-03 21:15 | 6.05691 | 0.96980 | 24663 ft | 503 kts | 249° |
| 2026-05-03 21:16 | 6.04469 | 0.93712 | 23996 ft | 497 kts | 249° |
| 2026-05-03 21:16 | 6.03250 | 0.90496 | 23364 ft | 490 kts | 248° |
| 2026-05-03 21:16 | 6.02040 | 0.87311 | 22240 ft | 490 kts | 248° |
| 2026-05-03 21:16 | 6.00829 | 0.84118 | 21550 ft | 486 kts | 248° |
| 2026-05-03 21:17 | 5.99630 | 0.80961 | 20902 ft | 480 kts | 248° |
| 2026-05-03 21:17 | 5.98928 | 0.78859 | 20440 ft | 478 kts | 255° |
| 2026-05-03 21:17 | 5.98098 | 0.74498 | 19508 ft | 475 kts | 259° |
| 2026-05-03 21:17 | 5.97531 | 0.71228 | 18799 ft | 474 kts | 260° |
| 2026-05-03 21:18 | 5.96986 | 0.67966 | 18098 ft | 473 kts | 260° |
| 2026-05-03 21:18 | 5.96454 | 0.64716 | 17466 ft | 469 kts | 260° |
| 2026-05-03 21:18 | 5.95931 | 0.61507 | 16934 ft | 462 kts | 260° |
| 2026-05-03 21:18 | 5.95417 | 0.58345 | 16418 ft | 456 kts | 260° |
| 2026-05-03 21:19 | 5.94909 | 0.55223 | 15905 ft | 450 kts | 260° |
| 2026-05-03 21:19 | 5.94407 | 0.52139 | 15409 ft | 444 kts | 260° |
| 2026-05-03 21:19 | 5.93911 | 0.49093 | 14931 ft | 439 kts | 261° |
| 2026-05-03 21:19 | 5.93422 | 0.46090 | 14460 ft | 434 kts | 260° |
| 2026-05-03 21:20 | 5.92937 | 0.43114 | 14010 ft | 428 kts | 260° |
| 2026-05-03 21:20 | 5.92466 | 0.40219 | 13566 ft | 423 kts | 260° |
| 2026-05-03 21:20 | 5.91987 | 0.37284 | 13105 ft | 418 kts | 260° |
| 2026-05-03 21:20 | 5.91528 | 0.34468 | 12731 ft | 411 kts | 260° |
| 2026-05-03 21:21 | 5.91071 | 0.31665 | 12453 ft | 402 kts | 261° |
| 2026-05-03 21:21 | 5.90624 | 0.28930 | 12215 ft | 392 kts | 260° |
| 2026-05-03 21:21 | 5.90189 | 0.26257 | 11999 ft | 383 kts | 261° |
| 2026-05-03 21:21 | 5.89763 | 0.23654 | 11795 ft | 373 kts | 260° |
| 2026-05-03 21:22 | 5.89348 | 0.21115 | 11630 ft | 364 kts | 260° |
| 2026-05-03 21:22 | 5.88944 | 0.18641 | 11459 ft | 354 kts | 260° |
| 2026-05-03 21:22 | 5.88550 | 0.16229 | 11323 ft | 345 kts | 260° |
| 2026-05-03 21:22 | 5.88167 | 0.13885 | 11191 ft | 335 kts | 260° |
| 2026-05-03 21:23 | 5.87795 | 0.11608 | 11070 ft | 326 kts | 260° |
| 2026-05-03 21:23 | 5.87433 | 0.09395 | 10944 ft | 317 kts | 260° |
| 2026-05-03 21:23 | 5.87077 | 0.07219 | 10650 ft | 316 kts | 260° |
| 2026-05-03 21:23 | 5.86722 | 0.05049 | 10380 ft | 313 kts | 260° |
| 2026-05-03 21:24 | 5.86374 | 0.02923 | 10257 ft | 304 kts | 260° |
| 2026-05-03 21:24 | 5.86036 | 0.00857 | 10151 ft | 295 kts | 260° |
| 2026-05-03 21:24 | 5.85709 | -0.01142 | 10063 ft | 285 kts | 260° |
| 2026-05-03 21:24 | 5.85391 | -0.03078 | 9947 ft | 277 kts | 260° |
| 2026-05-03 21:25 | 5.85081 | -0.04969 | 9608 ft | 274 kts | 260° |
| 2026-05-03 21:25 | 5.84782 | -0.06808 | 9396 ft | 258 kts | 261° |
| 2026-05-03 21:25 | 5.84515 | -0.08508 | 9372 ft | 234 kts | 261° |
| 2026-05-03 21:25 | 5.84431 | -0.10090 | 9349 ft | 224 kts | 286° |
| 2026-05-03 21:26 | 5.85202 | -0.11344 | 9266 ft | 204 kts | 333° |
| 2026-05-03 21:26 | 5.86449 | -0.11824 | 9365 ft | 189 kts | 359° |
| 2026-05-03 21:26 | 5.87690 | -0.11725 | 9368 ft | 180 kts | 22° |
| 2026-05-03 21:26 | 5.88899 | -0.11387 | 9053 ft | 183 kts | 23° |
| 2026-05-03 21:27 | 5.90135 | -0.11010 | 8515 ft | 188 kts | 24° |
| 2026-05-03 21:27 | 5.91276 | -0.10435 | 8088 ft | 180 kts | 53° |
| 2026-05-03 21:27 | 5.91621 | -0.09331 | 7686 ft | 167 kts | 103° |
| 2026-05-03 21:27 | 5.91155 | -0.08264 | 7401 ft | 166 kts | 118° |
| 2026-05-03 21:28 | 5.90440 | -0.07334 | 7084 ft | 174 kts | 136° |
| 2026-05-03 21:28 | 5.89341 | -0.06791 | 6668 ft | 181 kts | 163° |
| 2026-05-03 21:28 | 5.88086 | -0.06677 | 6336 ft | 184 kts | 181° |
| 2026-05-03 21:28 | 5.86846 | -0.07011 | 6022 ft | 185 kts | 195° |
| 2026-05-03 21:29 | 5.85623 | -0.07385 | 5779 ft | 183 kts | 193° |
| 2026-05-03 21:29 | 5.84421 | -0.07742 | 5337 ft | 179 kts | 193° |
| 2026-05-03 21:29 | 5.83228 | -0.08104 | 4754 ft | 180 kts | 194° |
| 2026-05-03 21:29 | 5.82020 | -0.08452 | 4119 ft | 182 kts | 194° |
| 2026-05-03 21:30 | 5.80808 | -0.08798 | 3574 ft | 178 kts | 192° |
| 2026-05-03 21:30 | 5.79643 | -0.09033 | 3407 ft | 163 kts | 193° |
| 2026-05-03 21:30 | 5.78591 | -0.09339 | 3368 ft | 154 kts | 197° |
| 2026-05-03 21:30 | 5.77600 | -0.09695 | 3354 ft | 150 kts | 201° |
| 2026-05-03 21:31 | 5.76634 | -0.10079 | 3191 ft | 149 kts | 201° |
| 2026-05-03 21:31 | 5.75674 | -0.10464 | 3008 ft | 148 kts | 201° |
| 2026-05-03 21:31 | 5.74726 | -0.10858 | 2841 ft | 147 kts | 202° |
| 2026-05-03 21:31 | 5.73783 | -0.11250 | 2667 ft | 146 kts | 202° |
| 2026-05-03 21:32 | 5.72844 | -0.11648 | 2503 ft | 146 kts | 202° |
| 2026-05-03 21:32 | 5.71906 | -0.12028 | 2290 ft | 145 kts | 202° |
| 2026-05-03 21:32 | 5.70966 | -0.12412 | 2121 ft | 146 kts | 204° |
| 2026-05-03 21:32 | 5.70032 | -0.12805 | 1949 ft | 145 kts | 202° |
| 2026-05-03 21:33 | 5.69102 | -0.13184 | 1762 ft | 145 kts | 202° |
| 2026-05-03 21:33 | 5.68165 | -0.13559 | 1585 ft | 145 kts | 202° |
| 2026-05-03 21:33 | 5.67226 | -0.13951 | 1385 ft | 147 kts | 204° |
| 2026-05-03 21:33 | 5.66282 | -0.14345 | 1201 ft | 148 kts | 203° |
| 2026-05-03 21:34 | 5.65336 | -0.14740 | 1042 ft | 146 kts | 202° |
| 2026-05-03 21:34 | 5.64379 | -0.15139 | 890 ft | 149 kts | 205° |
| 2026-05-03 21:34 | 5.63410 | -0.15542 | 630 ft | 151 kts | 199° |
| 2026-05-03 21:34 | 5.62449 | -0.15941 | 428 ft | 148 kts | 201° |
| 2026-05-03 21:35 | 5.61509 | -0.16317 | 244 ft | 142 kts | 202° |
| 2026-05-03 21:35 | 5.60740 | -0.16633 | 228 ft | 85 kts | 202° |
| 2026-05-03 21:35 | 5.60377 | -0.16782 | 222 ft | 43 kts | 202° |
| 2026-05-03 21:35 | 5.60108 | -0.16894 | 213 ft | 36 kts | 201° |
| 2026-05-03 21:36 | 5.59961 | -0.16975 | 208 ft | 18 kts | 220° |
| 2026-05-03 21:36 | 5.59883 | -0.17056 | 212 ft | 14 kts | 231° |
| 2026-05-03 21:36 | 5.59822 | -0.17138 | 208 ft | 15 kts | 246° |
| 2026-05-03 21:36 | 5.59876 | -0.17196 | 213 ft | 8 kts | 12° |
| 2026-05-03 21:37 | 5.59937 | -0.17172 | 214 ft | 11 kts | 23° |
| 2026-05-03 21:37 | 5.60004 | -0.17153 | 213 ft | 4 kts | 321° |
| 2026-05-03 21:37 | 5.60015 | -0.17173 | 211 ft | 2 kts | 295° |
| 2026-05-03 21:37 | 5.60018 | -0.17180 | 216 ft | 0 kts | 295° |
| 2026-05-03 21:41 | 5.60020 | -0.17184 | 215 ft | 3 kts | 292° |
| 2026-05-03 21:41 | 5.60030 | -0.17209 | 218 ft | 4 kts | 291° |
| 2026-05-03 21:41 | 5.60039 | -0.17233 | 220 ft | 4 kts | 292° |
| 2026-05-03 21:41 | 5.60043 | -0.17241 | 218 ft | 0 kts | 291° |